Flight Track Log - Related Links

Times and Time Zones

All times are in EDT time to prevent confusion due to time zone crossing. See the N182BP flight status page for this flight to view local times or setup timezone preferences in your user account.

Time Position Orientation Groundspeed Altitude Reporting Facility
EDT Latitude Longitude Course Direction KTS MPH feet Rate Location/Type
Wed 10:19:17 AM 42.5544 -92.3653 151° Southeast 93 107 2,500  Level Chicago Center
Wed 10:20:19 AM 42.5344 -92.3436 141° Southeast 93 107 3,200 677 Climbing Chicago Center
Wed 10:21:21 AM 42.5064 -92.3189 147° Southeast 97 112 3,900 629 Climbing Chicago Center
Wed 10:22:23 AM 42.4836 -92.2969 145° Southeast 99 114 4,500 581 Climbing Chicago Center
Wed 10:23:00 AM 42.3895 -92.2099 139° Southeast  Level FlightAware Approximate
Wed 10:23:25 AM 42.4619 -92.2708 138° Southeast 102 117 5,100  Level Chicago Center
Wed 10:24:00 AM 42.3619 -92.1798 151° Southeast  Level FlightAware Approximate
Wed 10:24:27 AM 42.4406 -92.2444 138° Southeast 104 120 5,600  Level Chicago Center
Wed 10:25:29 AM 42.4144 -92.2144 140° Southeast 104 120 6,200 532 Climbing Chicago Center
Wed 10:26:31 AM 42.3939 -92.1881 137° Southeast 103 119 6,700 532 Climbing Chicago Center
Wed 10:27:33 AM 42.3719 -92.1633 140° Southeast 103 119 7,300 484 Climbing Chicago Center
Wed 10:28:35 AM 42.3472 -92.1394 144° Southeast 106 122 7,700 387 Climbing Chicago Center
Wed 10:29:37 AM 42.3222 -92.1147 144° Southeast 109 125 8,100 435 Climbing Chicago Center
Wed 10:30:39 AM 42.2939 -92.0825 140° Southeast 111 128 8,600 387 Climbing Chicago Center
Wed 10:31:41 AM 42.2708 -92.0578 142° Southeast 110 127 8,900 145 Climbing Chicago Center
Wed 10:32:43 AM 42.2433 -92.0283 142° Southeast 115 132 8,900  Level Chicago Center
Wed 10:33:45 AM 42.2111 -91.9961 143° Southeast 128 147 8,900  Level Chicago Center
Wed 10:35:00 AM 42.1750 -91.9612 144° Southeast  Level FlightAware Approximate
Wed 10:35:49 AM 42.1439 -91.9294 144° Southeast 137 158 8,900  Level Chicago Center
Wed 10:36:51 AM 42.1125 -91.9003 145° Southeast 137 158 8,900  Level Chicago Center
Wed 10:37:53 AM 42.0850 -91.8672 138° Southeast 136 157 8,900  Level Chicago Center
Wed 10:38:55 AM 42.0575 -91.8344 138° Southeast 135 155 8,900  Level Chicago Center
Wed 10:39:57 AM 42.0236 -91.7925 137° Southeast 138 159 8,900  Level Chicago Center
Wed 10:40:59 AM 41.9967 -91.7581 136° Southeast 136 157 8,900  Level Chicago Center
Wed 10:42:01 AM 41.9700 -91.7244 137° Southeast 134 154 8,900  Level Chicago Center
Wed 10:43:03 AM 41.9431 -91.6900 136° Southeast 134 154 8,900  Level Chicago Center
Wed 10:44:05 AM 41.9158 -91.6589 140° Southeast 132 152 8,900  Level Chicago Center
Wed 10:45:08 AM 41.8744 -91.6372 159° South 133 153 8,900  Level Chicago Center
Wed 10:46:10 AM 41.8408 -91.6147 153° Southeast 135 155 8,900  Level Chicago Center
Wed 10:47:12 AM 41.8142 -91.5822 138° Southeast 132 152 8,900  Level Chicago Center
Wed 10:48:14 AM 41.7867 -91.5511 140° Southeast 130 150 8,900  Level Chicago Center
Wed 10:49:16 AM 41.7583 -91.5197 140° Southeast 133 153 8,900  Level Chicago Center
Wed 10:50:18 AM 41.7228 -91.4828 142° Southeast 135 155 8,900  Level Chicago Center
Wed 10:51:20 AM 41.6939 -91.4508 140° Southeast 137 158 8,900  Level Chicago Center
Wed 10:52:22 AM 41.6644 -91.4217 143° Southeast 135 155 8,900  Level Chicago Center
Wed 10:53:24 AM 41.6347 -91.3897 141° Southeast 137 158 8,900  Level Chicago Center
Wed 10:54:27 AM 41.6056 -91.3603 143° Southeast 134 154 8,900 48 Level Chicago Center
Wed 10:55:28 AM 41.5711 -91.3219 140° Southeast 135 155 9,000 49 Climbing Chicago Center
Wed 10:56:30 AM 41.5408 -91.2919 143° Southeast 137 158 9,000  Level Chicago Center
Wed 10:57:32 AM 41.5117 -91.2625 143° Southeast 135 155 9,000  Level Chicago Center
Wed 10:58:35 AM 41.4817 -91.2331 144° Southeast 134 154 9,000  Level Chicago Center
Wed 10:59:37 AM 41.4475 -91.1947 140° Southeast 134 154 9,000  Level Chicago Center
Wed 11:00:39 AM 41.4175 -91.1647 143° Southeast 135 155 9,000 -48 Level Chicago Center
Wed 11:01:41 AM 41.3878 -91.1333 142° Southeast 137 158 8,900 -48 Descending Chicago Center
Wed 11:02:43 AM 41.3564 -91.1033 144° Southeast 137 158 8,900  Level Chicago Center
Wed 11:03:46 AM 41.3267 -91.0717 141° Southeast 138 159 8,900  Level Chicago Center
Wed 11:04:48 AM 41.2967 -91.0389 141° Southeast 138 159 8,900  Level Chicago Center
Wed 11:05:50 AM 41.2600 -91.0011 142° Southeast 139 160 8,900 48 Level Chicago Center
Wed 11:06:52 AM 41.2278 -90.9714 145° Southeast 140 161 9,000  Climbing Chicago Center
Wed 11:07:54 AM 41.1981 -90.9394 141° Southeast 140 161 8,900 -48 Descending Chicago Center
Wed 11:08:56 AM 41.1681 -90.9083 142° Southeast 138 159 8,900  Level Chicago Center
Wed 11:09:58 AM 41.1364 -90.8775 144° Southeast 140 161 8,900  Level Chicago Center
Wed 11:11:00 AM 41.1058 -90.8464 143° Southeast 139 160 8,900  Level Chicago Center
Wed 11:12:02 AM 41.0686 -90.8081 142° Southeast 140 161 8,900  Level Chicago Center
Wed 11:13:04 AM 41.0381 -90.7772 143° Southeast 139 160 8,900  Level Chicago Center
Wed 11:14:06 AM 41.0072 -90.7456 142° Southeast 140 161 8,900 49 Level Chicago Center
Wed 11:15:07 AM 40.9756 -90.7144 143° Southeast 141 162 9,000 49 Climbing Chicago Center
Wed 11:16:09 AM 40.9453 -90.6836 142° Southeast 138 159 9,000  Level Chicago Center
Wed 11:17:11 AM 40.9153 -90.6522 142° Southeast 138 159 9,000  Level Chicago Center
Wed 11:18:13 AM 40.8831 -90.6203 143° Southeast 143 165 9,000  Level Chicago Center
Wed 11:19:15 AM 40.8472 -90.5844 143° Southeast 137 158 9,000  Level Chicago Center
Wed 11:20:17 AM 40.8158 -90.5525 142° Southeast 140 161 9,000  Level Chicago Center
Wed 11:21:19 AM 40.7856 -90.5225 143° Southeast 138 159 9,000  Level Chicago Center
Wed 11:22:20 AM 40.7547 -90.4917 143° Southeast 139 160 9,000  Level Chicago Center
Wed 11:23:22 AM 40.7242 -90.4617 143° Southeast 138 159 9,000  Level Chicago Center
Wed 11:24:24 AM 40.6928 -90.4294 142° Southeast 141 162 9,000  Level Chicago Center
Wed 11:25:26 AM 40.6633 -90.3978 141° Southeast 139 160 9,000  Level Chicago Center
Wed 11:26:28 AM 40.6253 -90.3625 145° Southeast 140 161 9,000  Level Chicago Center
Wed 11:27:30 AM 40.5950 -90.3314 142° Southeast 139 160 9,000  Level Chicago Center
Wed 11:28:31 AM 40.5647 -90.3011 143° Southeast 138 159 9,000  Level Chicago Center
Wed 11:29:33 AM 40.5339 -90.2697 142° Southeast 140 161 9,000 -48 Level Chicago Center
Wed 11:30:35 AM 40.5019 -90.2400 145° Southeast 141 162 8,900 -48 Descending Chicago Center
Wed 11:31:37 AM 40.4725 -90.2092 141° Southeast 138 159 8,900  Level Chicago Center
Wed 11:32:39 AM 40.4356 -90.1731 143° Southeast 138 159 8,900  Level Chicago Center
Wed 11:33:41 AM 40.4056 -90.1425 142° Southeast 137 158 8,900  Level Chicago Center
Wed 11:34:43 AM 40.3750 -90.1128 143° Southeast 137 158 8,900 54 Level Chicago Center
Wed 11:35:33 AM 40.3508 -90.0875 141° Southeast 138 159 9,000 54 Climbing Kansas City Center
Wed 11:36:35 AM 40.3203 -90.0578 143° Southeast 138 159 9,000  Level Kansas City Center
Wed 11:37:37 AM 40.2892 -90.0286 144° Southeast 137 158 9,000  Level Kansas City Center
Wed 11:38:39 AM 40.2528 -89.9917 142° Southeast 138 159 9,000  Level Kansas City Center
Wed 11:39:41 AM 40.2231 -89.9622 143° Southeast 136 157 9,000  Level Kansas City Center
Wed 11:40:43 AM 40.1925 -89.9328 144° Southeast 136 157 9,000  Level Kansas City Center
Wed 11:41:45 AM 40.1622 -89.9028 143° Southeast 136 157 9,000  Level Kansas City Center
Wed 11:42:47 AM 40.1322 -89.8725 142° Southeast 137 158 9,000  Level Kansas City Center
Wed 11:43:49 AM 40.1019 -89.8431 143° Southeast 136 157 9,000  Level Kansas City Center
Wed 11:44:51 AM 40.0644 -89.8072 144° Southeast 138 159 9,000  Level Kansas City Center
Wed 11:45:53 AM 40.0339 -89.7756 142° Southeast 139 160 9,000  Level Kansas City Center
Wed 11:46:55 AM 40.0042 -89.7481 145° Southeast 136 157 9,000  Level Kansas City Center
Wed 11:47:57 AM 39.9750 -89.7178 141° Southeast 133 153 9,000  Level Kansas City Center
Wed 11:48:59 AM 39.9458 -89.6900 144° Southeast 132 152 9,000  Level Kansas City Center
Wed 11:50:01 AM 39.9153 -89.6611 144° Southeast 134 154 9,000  Level Kansas City Center
Wed 11:51:03 AM 39.8800 -89.6253 142° Southeast 134 154 9,000  Level Kansas City Center
Wed 11:52:05 AM 39.8508 -89.5975 144° Southeast 132 152 9,000  Level Kansas City Center
Wed 11:53:07 AM 39.8211 -89.5692 144° Southeast 132 152 9,000  Level Kansas City Center
Wed 11:54:09 AM 39.7917 -89.5400 143° Southeast 134 154 9,000  Level Kansas City Center
Wed 11:55:11 AM 39.7625 -89.5119 144° Southeast 132 152 9,000  Level Kansas City Center
Wed 11:56:13 AM 39.7331 -89.4825 142° Southeast 132 152 9,000  Level Kansas City Center
Wed 11:57:15 AM 39.7019 -89.4533 144° Southeast 132 152 9,000  Level Kansas City Center
Wed 11:58:17 AM 39.6675 -89.4192 143° Southeast 130 150 9,000  Level Kansas City Center
Wed 11:59:20 AM 39.6378 -89.3919 145° Southeast 131 151 9,000  Level Kansas City Center
Wed 12:00:22 PM 39.6092 -89.3650 144° Southeast 129 148 9,000  Level Kansas City Center
Wed 12:01:24 PM 39.5792 -89.3364 144° Southeast 131 151 9,000  Level Kansas City Center
Wed 12:02:26 PM 39.5494 -89.3069 143° Southeast 134 154 9,000  Level Kansas City Center
Wed 12:03:28 PM 39.5194 -89.2781 143° Southeast 134 154 9,000  Level Kansas City Center
Wed 12:04:30 PM 39.4856 -89.2464 144° Southeast 131 151 9,000  Level Kansas City Center
Wed 12:05:32 PM 39.4558 -89.2175 143° Southeast 132 152 9,000  Level Kansas City Center
Wed 12:06:34 PM 39.4267 -89.1894 143° Southeast 132 152 9,000  Level Kansas City Center
Wed 12:07:36 PM 39.3958 -89.1594 143° Southeast 131 151 9,000  Level Kansas City Center
Wed 12:08:38 PM 39.3664 -89.1314 144° Southeast 132 152 9,000  Level Kansas City Center
Wed 12:09:40 PM 39.3369 -89.1036 144° Southeast 131 151 9,000  Level Kansas City Center
Wed 12:10:42 PM 39.3019 -89.0700 143° Southeast 131 151 9,000  Level Kansas City Center
Wed 12:11:44 PM 39.2719 -89.0408 143° Southeast 133 153 9,000  Level Kansas City Center
Wed 12:12:46 PM 39.2422 -89.0142 145° Southeast 132 152 9,000  Level Kansas City Center
Wed 12:13:48 PM 39.2131 -88.9872 144° Southeast 130 150 9,000  Level Kansas City Center
Wed 12:14:50 PM 39.1836 -88.9594 144° Southeast 131 151 9,000  Level Kansas City Center
Wed 12:15:52 PM 39.1569 -88.9311 141° Southeast 126 145 9,000  Level Kansas City Center
Wed 12:16:54 PM 39.1197 -88.8992 146° Southeast 132 152 9,000  Level Kansas City Center
Wed 12:17:56 PM 39.0908 -88.8703 142° Southeast 133 153 9,000  Level Kansas City Center
Wed 12:18:58 PM 39.0606 -88.8417 144° Southeast 134 154 9,000  Level Kansas City Center
Wed 12:20:00 PM 39.0311 -88.8139 144° Southeast 132 152 9,000  Level Kansas City Center
Wed 12:21:02 PM 39.0011 -88.7856 144° Southeast 133 153 9,000  Level Kansas City Center
Wed 12:22:04 PM 38.9703 -88.7578 145° Southeast 135 155 9,000  Level Kansas City Center
Wed 12:23:06 PM 38.9356 -88.7233 142° Southeast 133 153 9,000  Level Kansas City Center
Wed 12:24:08 PM 38.9061 -88.6961 144° Southeast 132 152 9,000  Level Kansas City Center
Wed 12:25:10 PM 38.8750 -88.6675 144° Southeast 135 155 9,000  Level Kansas City Center
Wed 12:26:13 PM 38.8458 -88.6403 144° Southeast 131 151 9,000  Level Kansas City Center
Wed 12:27:15 PM 38.8169 -88.6131 144° Southeast 130 150 9,000  Level Kansas City Center
Wed 12:28:17 PM 38.7875 -88.5853 144° Southeast 131 151 9,000  Level Kansas City Center
Wed 12:29:19 PM 38.7494 -88.5522 146° Southeast 133 153 9,000  Level Kansas City Center
Wed 12:30:21 PM 38.7206 -88.5261 145° Southeast 131 151 9,000  Level Kansas City Center
Wed 12:31:23 PM 38.6925 -88.4989 143° Southeast 129 148 9,000  Level Kansas City Center
Wed 12:32:25 PM 38.6644 -88.4711 142° Southeast 129 148 9,000  Level Kansas City Center
Wed 12:33:27 PM 38.6356 -88.4458 146° Southeast 127 146 9,000  Level Kansas City Center
Wed 12:34:29 PM 38.6078 -88.4189 143° Southeast 126 145 9,000  Level Kansas City Center
Wed 12:35:31 PM 38.5725 -88.3867 144° Southeast 127 146 9,000  Level Kansas City Center
Wed 12:36:33 PM 38.5453 -88.3597 142° Southeast 125 144 9,000  Level Kansas City Center
Wed 12:37:35 PM 38.5172 -88.3333 144° Southeast 124 143 9,000  Level Kansas City Center
Wed 12:38:37 PM 38.4886 -88.3067 144° Southeast 126 145 9,000  Level Kansas City Center
Wed 12:39:39 PM 38.4611 -88.2814 144° Southeast 124 143 9,000  Level Kansas City Center
Wed 12:40:41 PM 38.4300 -88.2550 146° Southeast 129 148 9,000  Level Kansas City Center
Wed 12:41:43 PM 38.3986 -88.2281 146° Southeast 134 154 9,000 -48 Level Kansas City Center
Wed 12:42:45 PM 38.3639 -88.1958 144° Southeast 131 151 8,900 -242 Descending Kansas City Center
Wed 12:43:47 PM 38.3317 -88.1675 145° Southeast 136 157 8,500 -435 Descending Kansas City Center
Wed 12:44:49 PM 38.3017 -88.1367 141° Southeast 138 159 8,000 -435 Descending Kansas City Center
Wed 12:45:51 PM 38.2678 -88.1072 146° Southeast 143 165 7,600 -435 Descending Kansas City Center
Wed 12:46:53 PM 38.2353 -88.0786 145° Southeast 143 165 7,100 -480 Descending Kansas City Center
Wed 12:47:56 PM 38.2047 -88.0472 141° Southeast 142 163 6,600 -480 Descending Kansas City Center
Wed 12:48:58 PM 38.1728 -88.0189 145° Southeast 141 162 6,100 -484 Descending Kansas City Center
Wed 12:50:00 PM 38.1336 -87.9831 144° Southeast 142 163 5,600 -484 Descending Kansas City Center
Wed 12:51:02 PM 38.1017 -87.9536 144° Southeast 142 163 5,100 -485 Descending Kansas City Center
Wed 12:52:16 PM 38.0658 -87.9208 144° Southeast 144 166 4,500 -444 Descending Indianapolis Center
Wed 12:53:17 PM 38.0358 -87.8914 142° Southeast 142 163 4,100 -341 Descending Indianapolis Center
Wed 12:54:19 PM 38.0061 -87.8653 145° Southeast 134 154 3,800 -387 Descending Indianapolis Center
Wed 12:55:21 PM 37.9758 -87.8400 147° Southeast 131 151 3,300 -484 Descending Indianapolis Center
Wed 12:56:23 PM 37.9461 -87.8136 145° Southeast 130 150 2,800 -488 Descending Indianapolis Center
Wed 12:57:24 PM 37.9106 -87.7797 143° Southeast 132 152 2,300 -293 Descending Indianapolis Center
Wed 12:58:26 PM 37.8828 -87.7533 143° Southeast 132 152 2,200 -97 Descending Indianapolis Center

Login

Don't have an account? Register now (free) for customized features, flight alerts, and more!